sensor_id;sensor_type;location;lat;lon;timestamp;pressure;altitude;pressure_sealevel;temperature;humidity
54910;BME280;63189;51.240;9.964;2022-09-16T00:00:13;97171.03;;;12.05;81.70
54910;BME280;63189;51.240;9.964;2022-09-16T00:02:38;97170.03;;;12.08;82.22
54910;BME280;63189;51.240;9.964;2022-09-16T00:05:04;97169.19;;;12.07;82.45
54910;BME280;63189;51.240;9.964;2022-09-16T00:07:30;97169.19;;;12.07;82.61
54910;BME280;63189;51.240;9.964;2022-09-16T00:09:55;97172.72;;;12.06;82.07
54910;BME280;63189;51.240;9.964;2022-09-16T00:12:21;97169.19;;;12.07;81.57
54910;BME280;63189;51.240;9.964;2022-09-16T00:14:46;97175.25;;;12.08;81.97
54910;BME280;63189;51.240;9.964;2022-09-16T00:17:12;97157.38;;;12.00;82.02
54910;BME280;63189;51.240;9.964;2022-09-16T00:19:38;97166.56;;;12.07;81.77
54910;BME280;63189;51.240;9.964;2022-09-16T00:22:03;97170.97;;;12.07;81.81
54910;BME280;63189;51.240;9.964;2022-09-16T00:24:29;97171.75;;;12.09;81.50
54910;BME280;63189;51.240;9.964;2022-09-16T00:26:54;97166.66;;;12.06;81.79
54910;BME280;63189;51.240;9.964;2022-09-16T00:29:19;97165.72;;;12.07;81.62
54910;BME280;63189;51.240;9.964;2022-09-16T00:31:45;97181.34;;;12.08;81.52
54910;BME280;63189;51.240;9.964;2022-09-16T00:34:10;97161.59;;;12.03;81.32
54910;BME280;63189;51.240;9.964;2022-09-16T00:36:35;97172.81;;;12.05;80.95
54910;BME280;63189;51.240;9.964;2022-09-16T00:39:01;97166.81;;;12.03;81.38
54910;BME280;63189;51.240;9.964;2022-09-16T00:41:29;97164.28;;;12.01;81.02
54910;BME280;63189;51.240;9.964;2022-09-16T00:44:05;97174.84;;;11.98;81.18
54910;BME280;63189;51.240;9.964;2022-09-16T00:48:59;97167.69;;;11.84;81.19
54910;BME280;63189;51.240;9.964;2022-09-16T00:51:25;97176.25;;;11.88;80.90
54910;BME280;63189;51.240;9.964;2022-09-16T00:53:59;97170.22;;;11.86;81.50
54910;BME280;63189;51.240;9.964;2022-09-16T00:56:30;97169.53;;;11.82;81.17
54910;BME280;63189;51.240;9.964;2022-09-16T00:59:07;97165.16;;;11.83;81.18
54910;BME280;63189;51.240;9.964;2022-09-16T01:01:34;97157.53;;;11.78;81.79
54910;BME280;63189;51.240;9.964;2022-09-16T01:04:05;97154.13;;;11.76;82.00
54910;BME280;63189;51.240;9.964;2022-09-16T01:06:36;97155.13;;;11.74;81.99
54910;BME280;63189;51.240;9.964;2022-09-16T01:09:02;97144.91;;;11.69;81.71
54910;BME280;63189;51.240;9.964;2022-09-16T01:11:28;97152.75;;;11.69;81.35
54910;BME280;63189;51.240;9.964;2022-09-16T01:13:53;97162.28;;;11.70;81.90
54910;BME280;63189;51.240;9.964;2022-09-16T01:16:41;97159.81;;;11.67;82.22
54910;BME280;63189;51.240;9.964;2022-09-16T01:19:26;97159.81;;;11.67;82.21
54910;BME280;63189;51.240;9.964;2022-09-16T01:27:28;97156.72;;;11.59;82.09
54910;BME280;63189;51.240;9.964;2022-09-16T01:30:08;97160.94;;;11.62;82.25
54910;BME280;63189;51.240;9.964;2022-09-16T01:32:48;97158.25;;;11.63;82.39
54910;BME280;63189;51.240;9.964;2022-09-16T01:35:32;97158.41;;;11.60;82.03
54910;BME280;63189;51.240;9.964;2022-09-16T01:40:51;97158.94;;;11.67;81.75
54910;BME280;63189;51.240;9.964;2022-09-16T01:43:27;97149.56;;;11.63;81.78
54910;BME280;63189;51.240;9.964;2022-09-16T01:45:56;97154.63;;;11.66;81.55
54910;BME280;63189;51.240;9.964;2022-09-16T01:48:30;97162.53;;;11.64;81.29
54910;BME280;63189;51.240;9.964;2022-09-16T01:51:13;97159.00;;;11.65;81.76
54910;BME280;63189;51.240;9.964;2022-09-16T01:54:11;97153.03;;;11.63;82.45
54910;BME280;63189;51.240;9.964;2022-09-16T01:56:45;97162.63;;;11.63;82.04
54910;BME280;63189;51.240;9.964;2022-09-16T01:59:19;97153.25;;;11.59;82.10
54910;BME280;63189;51.240;9.964;2022-09-16T02:01:57;97158.41;;;11.60;82.54
54910;BME280;63189;51.240;9.964;2022-09-16T02:04:30;97154.88;;;11.61;82.72
54910;BME280;63189;51.240;9.964;2022-09-16T02:06:58;97151.34;;;11.62;82.32
54910;BME280;63189;51.240;9.964;2022-09-16T02:09:30;97154.72;;;11.64;82.47
54910;BME280;63189;51.240;9.964;2022-09-16T02:12:00;97157.31;;;11.64;82.47
54910;BME280;63189;51.240;9.964;2022-09-16T02:14:32;97153.94;;;11.62;82.68
54910;BME280;63189;51.240;9.964;2022-09-16T02:17:08;97148.88;;;11.59;82.83
54910;BME280;63189;51.240;9.964;2022-09-16T02:22:17;97155.63;;;11.63;82.92
54910;BME280;63189;51.240;9.964;2022-09-16T02:24:45;97161.69;;;11.64;82.72
54910;BME280;63189;51.240;9.964;2022-09-16T02:27:15;97149.81;;;11.58;82.63
54910;BME280;63189;51.240;9.964;2022-09-16T02:29:48;97155.03;;;11.58;82.54
54910;BME280;63189;51.240;9.964;2022-09-16T02:32:16;97164.63;;;11.57;82.81
54910;BME280;63189;51.240;9.964;2022-09-16T02:34:47;97165.38;;;11.60;82.74
54910;BME280;63189;51.240;9.964;2022-09-16T02:37:17;97166.31;;;11.59;82.55
54910;BME280;63189;51.240;9.964;2022-09-16T02:39:47;97155.03;;;11.58;82.40
54910;BME280;63189;51.240;9.964;2022-09-16T02:42:15;97145.53;;;11.55;82.29
54910;BME280;63189;51.240;9.964;2022-09-16T02:44:41;97148.22;;;11.54;82.28
54910;BME280;63189;51.240;9.964;2022-09-16T02:49:45;97149.31;;;11.50;81.90
54910;BME280;63189;51.240;9.964;2022-09-16T02:52:28;97153.75;;;11.48;81.70
54910;BME280;63189;51.240;9.964;2022-09-16T02:55:21;97157.22;;;11.48;81.63
54910;BME280;63189;51.240;9.964;2022-09-16T02:57:48;97158.25;;;11.44;82.12
54910;BME280;63189;51.240;9.964;2022-09-16T03:00:13;97157.41;;;11.44;82.29
54910;BME280;63189;51.240;9.964;2022-09-16T03:02:39;97149.66;;;11.42;82.08
54910;BME280;63189;51.240;9.964;2022-09-16T03:05:04;97162.63;;;11.44;82.11
54910;BME280;63189;51.240;9.964;2022-09-16T03:07:30;97149.50;;;11.45;81.81
54910;BME280;63189;51.240;9.964;2022-09-16T03:09:56;97150.34;;;11.46;81.97
54910;BME280;63189;51.240;9.964;2022-09-16T03:12:44;97158.25;;;11.44;81.96
54910;BME280;63189;51.240;9.964;2022-09-16T03:20:46;97136.75;;;11.39;81.85
54910;BME280;63189;51.240;9.964;2022-09-16T03:29:11;97129.63;;;11.24;81.40
54910;BME280;63189;51.240;9.964;2022-09-16T03:32:24;97127.94;;;11.23;81.36
54910;BME280;63189;51.240;9.964;2022-09-16T03:34:45;97122.78;;;11.21;81.65
54910;BME280;63189;51.240;9.964;2022-09-16T03:37:16;97128.25;;;11.17;81.78
54910;BME280;63189;51.240;9.964;2022-09-16T03:39:48;97127.31;;;11.18;81.49
54910;BME280;63189;51.240;9.964;2022-09-16T03:42:15;97139.38;;;11.20;81.93
54910;BME280;63189;51.240;9.964;2022-09-16T03:44:41;97127.31;;;11.18;81.96
54910;BME280;63189;51.240;9.964;2022-09-16T03:47:07;97124.72;;;11.18;82.34
54910;BME280;63189;51.240;9.964;2022-09-16T03:49:33;97128.44;;;11.12;82.26
54910;BME280;63189;51.240;9.964;2022-09-16T03:51:59;97129.19;;;11.14;82.38
54910;BME280;63189;51.240;9.964;2022-09-16T03:54:25;97120.75;;;11.09;82.29
54910;BME280;63189;51.240;9.964;2022-09-16T03:56:50;97130.94;;;11.15;82.44
54910;BME280;63189;51.240;9.964;2022-09-16T03:59:16;97125.56;;;11.18;82.44
54910;BME280;63189;51.240;9.964;2022-09-16T04:01:42;97128.09;;;11.20;82.79
54910;BME280;63189;51.240;9.964;2022-09-16T04:04:07;97114.28;;;11.18;82.50
54910;BME280;63189;51.240;9.964;2022-09-16T04:06:33;97128.84;;;11.22;82.31
54910;BME280;63189;51.240;9.964;2022-09-16T04:09:01;97116.13;;;11.16;82.36
54910;BME280;63189;51.240;9.964;2022-09-16T04:11:26;97124.41;;;11.24;82.40
54910;BME280;63189;51.240;9.964;2022-09-16T04:13:54;97115.75;;;11.23;82.47
54910;BME280;63189;51.240;9.964;2022-09-16T04:16:20;97109.59;;;11.24;82.33
54910;BME280;63189;51.240;9.964;2022-09-16T04:18:46;97121.19;;;11.19;82.04
54910;BME280;63189;51.240;9.964;2022-09-16T04:21:12;97127.94;;;11.23;81.78
54910;BME280;63189;51.240;9.964;2022-09-16T04:23:37;97111.75;;;11.16;81.57
54910;BME280;63189;51.240;9.964;2022-09-16T04:26:03;97125.41;;;11.21;81.40
54910;BME280;63189;51.240;9.964;2022-09-16T04:28:29;97123.56;;;11.23;81.62
54910;BME280;63189;51.240;9.964;2022-09-16T04:30:59;97128.78;;;11.23;82.29
54910;BME280;63189;51.240;9.964;2022-09-16T04:33:30;97126.19;;;11.23;81.94
54910;BME280;63189;51.240;9.964;2022-09-16T04:36:06;97129.78;;;11.21;81.89
54910;BME280;63189;51.240;9.964;2022-09-16T04:38:36;97132.31;;;11.22;82.17
54910;BME280;63189;51.240;9.964;2022-09-16T04:41:07;97125.56;;;11.18;82.27
54910;BME280;63189;51.240;9.964;2022-09-16T04:43:33;97132.53;;;11.18;82.10
54910;BME280;63189;51.240;9.964;2022-09-16T04:45:58;97120.34;;;11.18;82.22
54910;BME280;63189;51.240;9.964;2022-09-16T04:48:24;97127.31;;;11.18;82.32
54910;BME280;63189;51.240;9.964;2022-09-16T04:50:53;97129.78;;;11.21;82.80
54910;BME280;63189;51.240;9.964;2022-09-16T04:53:19;97124.78;;;11.16;82.69
54910;BME280;63189;51.240;9.964;2022-09-16T04:55:46;97133.38;;;11.18;82.45
54910;BME280;63189;51.240;9.964;2022-09-16T04:58:12;97119.69;;;11.13;82.33
54910;BME280;63189;51.240;9.964;2022-09-16T05:00:39;97123.09;;;11.15;82.53
54910;BME280;63189;51.240;9.964;2022-09-16T05:03:04;97127.50;;;11.13;82.50
54910;BME280;63189;51.240;9.964;2022-09-16T05:05:29;97114.88;;;11.04;82.27
54910;BME280;63189;51.240;9.964;2022-09-16T05:07:55;97113.84;;;11.08;82.58
54910;BME280;63189;51.240;9.964;2022-09-16T05:10:20;97124.81;;;11.15;83.03
54910;BME280;63189;51.240;9.964;2022-09-16T05:12:52;97126.47;;;11.17;82.70
54910;BME280;63189;51.240;9.964;2022-09-16T05:15:18;97121.94;;;11.21;82.64
54910;BME280;63189;51.240;9.964;2022-09-16T05:17:44;97121.75;;;11.25;82.58
54910;BME280;63189;51.240;9.964;2022-09-16T05:20:10;97111.44;;;11.22;82.28
54910;BME280;63189;51.240;9.964;2022-09-16T05:22:35;97114.13;;;11.21;82.41
54910;BME280;63189;51.240;9.964;2022-09-16T05:25:01;97118.34;;;11.23;82.88
54910;BME280;63189;51.240;9.964;2022-09-16T05:27:31;97128.66;;;11.26;82.53
54910;BME280;63189;51.240;9.964;2022-09-16T05:29:57;97126.81;;;11.28;82.38
54910;BME280;63189;51.240;9.964;2022-09-16T05:32:22;97123.88;;;11.36;82.00
54910;BME280;63189;51.240;9.964;2022-09-16T05:34:47;97132.38;;;11.40;81.83
54910;BME280;63189;51.240;9.964;2022-09-16T05:37:15;97126.31;;;11.39;81.56
54910;BME280;63189;51.240;9.964;2022-09-16T05:39:41;97121.03;;;11.41;81.59
54910;BME280;63189;51.240;9.964;2022-09-16T05:42:08;97123.72;;;11.39;81.09
54910;BME280;63189;51.240;9.964;2022-09-16T05:44:33;97127.25;;;11.38;80.89
54910;BME280;63189;51.240;9.964;2022-09-16T05:46:58;97121.94;;;11.40;80.16
54910;BME280;63189;51.240;9.964;2022-09-16T05:49:24;97126.25;;;11.41;80.10
54910;BME280;63189;51.240;9.964;2022-09-16T05:51:50;97131.03;;;11.50;79.79
54910;BME280;63189;51.240;9.964;2022-09-16T05:54:16;97116.41;;;11.46;79.63
54910;BME280;63189;51.240;9.964;2022-09-16T05:56:46;97125.59;;;11.54;79.58
54910;BME280;63189;51.240;9.964;2022-09-16T05:59:12;97115.88;;;11.58;79.51
54910;BME280;63189;51.240;9.964;2022-09-16T06:01:38;97109.06;;;11.54;79.11
54910;BME280;63189;51.240;9.964;2022-09-16T06:04:05;97123.53;;;11.61;79.06
54910;BME280;63189;51.240;9.964;2022-09-16T06:06:34;97133.97;;;11.61;79.35
54910;BME280;63189;51.240;9.964;2022-09-16T06:09:23;97135.75;;;11.61;79.75
54910;BME280;63189;51.240;9.964;2022-09-16T06:11:51;97132.28;;;11.60;79.41
54910;BME280;63189;51.240;9.964;2022-09-16T06:14:17;97131.38;;;11.61;79.19
54910;BME280;63189;51.240;9.964;2022-09-16T06:16:44;97125.31;;;11.61;79.29
54910;BME280;63189;51.240;9.964;2022-09-16T06:19:12;97127.00;;;11.62;79.28
54910;BME280;63189;51.240;9.964;2022-09-16T06:21:38;97126.00;;;11.64;79.37
54910;BME280;63189;51.240;9.964;2022-09-16T06:24:05;97121.00;;;11.60;79.47
54910;BME280;63189;51.240;9.964;2022-09-16T06:26:37;97118.41;;;11.60;78.97
54910;BME280;63189;51.240;9.964;2022-09-16T06:29:03;97124.47;;;11.60;79.13
54910;BME280;63189;51.240;9.964;2022-09-16T06:31:30;97124.63;;;11.57;79.43
54910;BME280;63189;51.240;9.964;2022-09-16T06:33:56;97131.44;;;11.60;79.47
54910;BME280;63189;51.240;9.964;2022-09-16T06:36:29;97127.16;;;11.59;79.41
54910;BME280;63189;51.240;9.964;2022-09-16T06:38:55;97124.53;;;11.59;79.44
54910;BME280;63189;51.240;9.964;2022-09-16T06:41:21;97111.84;;;11.51;79.31
54910;BME280;63189;51.240;9.964;2022-09-16T06:43:47;97118.59;;;11.55;79.74
54910;BME280;63189;51.240;9.964;2022-09-16T06:46:17;97108.59;;;11.46;79.44
54910;BME280;63189;51.240;9.964;2022-09-16T06:48:44;97100.91;;;11.43;79.34
54910;BME280;63189;51.240;9.964;2022-09-16T06:51:12;97114.03;;;11.41;79.71
54910;BME280;63189;51.240;9.964;2022-09-16T06:53:39;97109.66;;;11.42;79.98
54910;BME280;63189;51.240;9.964;2022-09-16T06:56:10;97116.72;;;11.40;80.82
54910;BME280;63189;51.240;9.964;2022-09-16T06:58:37;97114.19;;;11.38;80.67
54910;BME280;63189;51.240;9.964;2022-09-16T07:01:08;97103.41;;;11.27;80.69
54910;BME280;63189;51.240;9.964;2022-09-16T07:03:42;97112.84;;;11.30;81.23
54910;BME280;63189;51.240;9.964;2022-09-16T07:06:08;97113.94;;;11.25;80.70
54910;BME280;63189;51.240;9.964;2022-09-16T07:08:35;97098.47;;;11.21;80.82
54910;BME280;63189;51.240;9.964;2022-09-16T07:11:10;97111.31;;;11.25;81.21
54910;BME280;63189;51.240;9.964;2022-09-16T07:13:35;97120.19;;;11.21;80.99
54910;BME280;63189;51.240;9.964;2022-09-16T07:16:06;97126.25;;;11.22;81.15
54910;BME280;63189;51.240;9.964;2022-09-16T07:18:32;97128.66;;;11.26;81.20
54910;BME280;63189;51.240;9.964;2022-09-16T07:21:06;97133.88;;;11.26;80.15
54910;BME280;63189;51.240;9.964;2022-09-16T07:23:33;97126.66;;;11.32;80.30
54910;BME280;63189;51.240;9.964;2022-09-16T07:26:07;97128.28;;;11.34;80.63
54910;BME280;63189;51.240;9.964;2022-09-16T07:28:33;97128.34;;;11.33;80.07
54910;BME280;63189;51.240;9.964;2022-09-16T07:31:08;97124.06;;;11.32;80.15
54910;BME280;63189;51.240;9.964;2022-09-16T07:33:42;97140.44;;;11.16;80.62
54910;BME280;63189;51.240;9.964;2022-09-16T07:36:09;97136.06;;;11.17;81.53
54910;BME280;63189;51.240;9.964;2022-09-16T07:38:35;97138.53;;;11.20;81.70
54910;BME280;63189;51.240;9.964;2022-09-16T07:41:18;97140.56;;;11.13;82.84
54910;BME280;63189;51.240;9.964;2022-09-16T07:43:44;97147.47;;;11.14;84.05
54910;BME280;63189;51.240;9.964;2022-09-16T07:46:12;97130.41;;;11.07;84.06
54910;BME280;63189;51.240;9.964;2022-09-16T07:48:38;97143.25;;;11.12;83.82
54910;BME280;63189;51.240;9.964;2022-09-16T07:51:09;97141.34;;;11.15;84.26
54910;BME280;63189;51.240;9.964;2022-09-16T07:53:35;97148.13;;;11.19;83.85
54910;BME280;63189;51.240;9.964;2022-09-16T07:56:03;97146.34;;;11.20;83.62
54910;BME280;63189;51.240;9.964;2022-09-16T07:58:29;97147.97;;;11.22;83.22
54910;BME280;63189;51.240;9.964;2022-09-16T08:00:54;97143.53;;;11.24;83.26
54910;BME280;63189;51.240;9.964;2022-09-16T08:03:20;97143.41;;;11.27;83.33
54910;BME280;63189;51.240;9.964;2022-09-16T08:05:46;97137.69;;;11.38;83.55
54910;BME280;63189;51.240;9.964;2022-09-16T08:08:11;97143.00;;;11.54;82.22
54910;BME280;63189;51.240;9.964;2022-09-16T08:10:37;97143.56;;;11.61;82.27
54910;BME280;63189;51.240;9.964;2022-09-16T08:13:03;97135.75;;;11.61;81.73
54910;BME280;63189;51.240;9.964;2022-09-16T08:15:29;97147.13;;;11.60;81.32
54910;BME280;63189;51.240;9.964;2022-09-16T08:17:54;97115.03;;;11.39;81.46
54910;BME280;63189;51.240;9.964;2022-09-16T08:20:20;97148.22;;;11.54;81.90
54910;BME280;63189;51.240;9.964;2022-09-16T08:22:45;97146.53;;;11.53;81.83
54910;BME280;63189;51.240;9.964;2022-09-16T08:25:10;97144.16;;;11.48;81.76
54910;BME280;63189;51.240;9.964;2022-09-16T08:27:36;97141.91;;;11.41;82.04
54910;BME280;63189;51.240;9.964;2022-09-16T08:30:03;97155.56;;;11.46;82.11
54910;BME280;63189;51.240;9.964;2022-09-16T08:32:28;97161.59;;;11.48;81.84
54910;BME280;63189;51.240;9.964;2022-09-16T08:34:55;97144.38;;;11.44;81.95
54910;BME280;63189;51.240;9.964;2022-09-16T08:37:20;97155.38;;;11.50;81.94
54910;BME280;63189;51.240;9.964;2022-09-16T08:39:46;97159.44;;;11.56;81.97
54910;BME280;63189;51.240;9.964;2022-09-16T08:42:27;97160.94;;;11.62;81.54
54910;BME280;63189;51.240;9.964;2022-09-16T08:45:05;97168.69;;;11.63;80.71
54910;BME280;63189;51.240;9.964;2022-09-16T08:50:34;97154.72;;;11.64;81.43
54910;BME280;63189;51.240;9.964;2022-09-16T08:53:08;97161.50;;;11.68;81.11
54910;BME280;63189;51.240;9.964;2022-09-16T08:55:40;97169.78;;;11.76;81.14
54910;BME280;63189;51.240;9.964;2022-09-16T08:58:16;97165.94;;;11.85;81.37
54910;BME280;63189;51.240;9.964;2022-09-16T09:00:45;97159.78;;;11.86;81.41
54910;BME280;63189;51.240;9.964;2022-09-16T09:05:49;97160.91;;;11.99;81.04
54910;BME280;63189;51.240;9.964;2022-09-16T09:11:31;97170.34;;;12.02;79.67
54910;BME280;63189;51.240;9.964;2022-09-16T09:16:45;97163.34;;;12.02;80.29
54910;BME280;63189;51.240;9.964;2022-09-16T09:19:38;97172.53;;;12.11;80.83
54910;BME280;63189;51.240;9.964;2022-09-16T09:25:31;97162.84;;;12.30;79.87
54910;BME280;63189;51.240;9.964;2022-09-16T09:30:37;97153.53;;;12.42;78.94
54910;BME280;63189;51.240;9.964;2022-09-16T09:36:10;97135.00;;;12.47;78.55
54910;BME280;63189;51.240;9.964;2022-09-16T09:41:48;97141.00;;;12.49;77.32
54910;BME280;63189;51.240;9.964;2022-09-16T09:44:30;97141.22;;;12.44;76.80
54910;BME280;63189;51.240;9.964;2022-09-16T09:47:06;97147.97;;;12.48;76.71
54910;BME280;63189;51.240;9.964;2022-09-16T09:49:41;97141.63;;;12.54;76.88
54910;BME280;63189;51.240;9.964;2022-09-16T09:52:39;97130.63;;;12.47;76.45
54910;BME280;63189;51.240;9.964;2022-09-16T09:55:16;97140.44;;;12.59;76.82
54910;BME280;63189;51.240;9.964;2022-09-16T09:58:09;97129.00;;;12.62;77.55
54910;BME280;63189;51.240;9.964;2022-09-16T10:00:38;97140.59;;;12.74;77.03
54910;BME280;63189;51.240;9.964;2022-09-16T10:03:08;97144.03;;;12.74;75.13
54910;BME280;63189;51.240;9.964;2022-09-16T10:05:34;97128.50;;;12.71;74.57
54910;BME280;63189;51.240;9.964;2022-09-16T10:08:13;97129.38;;;12.87;74.97
54910;BME280;63189;51.240;9.964;2022-09-16T10:10:50;97125.22;;;13.16;74.92
54910;BME280;63189;51.240;9.964;2022-09-16T10:13:17;97132.59;;;13.41;72.47
54910;BME280;63189;51.240;9.964;2022-09-16T10:15:44;97131.19;;;13.51;72.42
54910;BME280;63189;51.240;9.964;2022-09-16T10:18:22;97127.72;;;13.51;70.88
54910;BME280;63189;51.240;9.964;2022-09-16T10:23:28;97123.50;;;14.10;70.55
54910;BME280;63189;51.240;9.964;2022-09-16T10:26:25;97118.72;;;14.16;69.16
54910;BME280;63189;51.240;9.964;2022-09-16T10:29:10;97111.44;;;13.92;70.03
54910;BME280;63189;51.240;9.964;2022-09-16T10:31:39;97118.47;;;13.75;71.89
54910;BME280;63189;51.240;9.964;2022-09-16T10:36:45;97128.66;;;13.34;75.40
54910;BME280;63189;51.240;9.964;2022-09-16T10:39:24;97126.69;;;13.22;76.70
54910;BME280;63189;51.240;9.964;2022-09-16T10:41:51;97121.00;;;13.14;77.86
54910;BME280;63189;51.240;9.964;2022-09-16T10:44:21;97132.22;;;13.16;78.77
54910;BME280;63189;51.240;9.964;2022-09-16T10:46:56;97118.78;;;13.06;78.96
54910;BME280;63189;51.240;9.964;2022-09-16T10:49:47;97125.91;;;13.04;79.85
54910;BME280;63189;51.240;9.964;2022-09-16T10:52:15;97118.28;;;12.99;78.76
54910;BME280;63189;51.240;9.964;2022-09-16T10:54:42;97118.66;;;12.92;78.85
54910;BME280;63189;51.240;9.964;2022-09-16T11:14:00;97104.38;;;13.62;78.08
54910;BME280;63189;51.240;9.964;2022-09-16T11:16:55;97103.97;;;13.70;76.74
54910;BME280;63189;51.240;9.964;2022-09-16T11:20:31;97097.03;;;13.69;75.70
54910;BME280;63189;51.240;9.964;2022-09-16T11:22:44;97100.00;;;13.63;74.04
54910;BME280;63189;51.240;9.964;2022-09-16T11:25:26;97090.97;;;13.68;77.09
54910;BME280;63189;51.240;9.964;2022-09-16T11:28:33;97099.56;;;13.70;72.43
54910;BME280;63189;51.240;9.964;2022-09-16T11:33:37;97103.78;;;14.19;74.10
54910;BME280;63189;51.240;9.964;2022-09-16T11:36:10;97111.72;;;14.47;74.81
54910;BME280;63189;51.240;9.964;2022-09-16T11:52:56;97106.06;;;14.39;63.53
54910;BME280;63189;51.240;9.964;2022-09-16T11:57:59;97087.47;;;14.13;63.08
54910;BME280;63189;51.240;9.964;2022-09-16T12:00:28;97088.78;;;14.21;64.58
54910;BME280;63189;51.240;9.964;2022-09-16T12:03:29;97087.13;;;14.34;63.54
54910;BME280;63189;51.240;9.964;2022-09-16T12:06:03;97092.78;;;14.42;63.50
54910;BME280;63189;51.240;9.964;2022-09-16T12:11:17;97094.53;;;14.41;63.92
54910;BME280;63189;51.240;9.964;2022-09-16T12:13:49;97087.31;;;14.31;61.07
54910;BME280;63189;51.240;9.964;2022-09-16T12:16:49;97084.88;;;14.28;60.38
54910;BME280;63189;51.240;9.964;2022-09-16T12:19:28;97085.72;;;14.28;62.49
54910;BME280;63189;51.240;9.964;2022-09-16T12:22:05;97092.75;;;14.28;62.29
54910;BME280;63189;51.240;9.964;2022-09-16T12:25:14;97079.63;;;14.28;63.48
54910;BME280;63189;51.240;9.964;2022-09-16T12:30:34;97086.94;;;14.37;62.88
54910;BME280;63189;51.240;9.964;2022-09-16T12:36:19;97068.47;;;14.24;61.47
54910;BME280;63189;51.240;9.964;2022-09-16T12:38:47;97073.91;;;14.21;62.46
54910;BME280;63189;51.240;9.964;2022-09-16T12:50:26;97074.81;;;14.79;60.42
54910;BME280;63189;51.240;9.964;2022-09-16T13:02:28;97060.69;;;15.37;56.24
54910;BME280;63189;51.240;9.964;2022-09-16T13:05:09;97051.06;;;15.50;54.36
54910;BME280;63189;51.240;9.964;2022-09-16T13:07:36;97042.06;;;15.54;54.97
54910;BME280;63189;51.240;9.964;2022-09-16T13:10:15;97061.72;;;15.75;53.97
54910;BME280;63189;51.240;9.964;2022-09-16T13:12:41;97051.22;;;15.88;53.89
54910;BME280;63189;51.240;9.964;2022-09-16T13:15:07;97049.78;;;15.97;52.68
54910;BME280;63189;51.240;9.964;2022-09-16T13:17:37;97055.91;;;16.10;52.25
54910;BME280;63189;51.240;9.964;2022-09-16T13:23:05;97060.56;;;16.19;50.48
54910;BME280;63189;51.240;9.964;2022-09-16T13:26:06;97047.91;;;16.24;50.74
54910;BME280;63189;51.240;9.964;2022-09-16T13:33:39;97048.69;;;16.26;50.56
54910;BME280;63189;51.240;9.964;2022-09-16T13:36:13;97041.41;;;16.30;49.93
54910;BME280;63189;51.240;9.964;2022-09-16T13:38:41;97046.91;;;16.27;49.00
54910;BME280;63189;51.240;9.964;2022-09-16T13:41:10;97045.28;;;16.24;46.48
54910;BME280;63189;51.240;9.964;2022-09-16T13:46:13;97047.94;;;16.37;49.34
54910;BME280;63189;51.240;9.964;2022-09-16T13:51:27;97042.69;;;16.37;47.95
54910;BME280;63189;51.240;9.964;2022-09-16T13:53:54;97038.34;;;16.36;47.96
54910;BME280;63189;51.240;9.964;2022-09-16T13:59:37;97045.28;;;16.24;47.30
54910;BME280;63189;51.240;9.964;2022-09-16T14:02:16;97048.13;;;16.21;48.88
54910;BME280;63189;51.240;9.964;2022-09-16T14:05:00;97035.09;;;16.20;49.57
54910;BME280;63189;51.240;9.964;2022-09-16T14:07:53;97045.28;;;16.11;48.42
54910;BME280;63189;51.240;9.964;2022-09-16T14:13:21;97038.44;;;15.96;49.58
54910;BME280;63189;51.240;9.964;2022-09-16T14:15:52;97039.88;;;15.87;49.02
54910;BME280;63189;51.240;9.964;2022-09-16T14:18:29;97028.06;;;15.80;47.73
54910;BME280;63189;51.240;9.964;2022-09-16T14:21:16;97034.28;;;15.79;47.79
54910;BME280;63189;51.240;9.964;2022-09-16T14:23:42;97031.44;;;15.82;48.94
54910;BME280;63189;51.240;9.964;2022-09-16T14:26:12;97031.75;;;15.78;48.20
54910;BME280;63189;51.240;9.964;2022-09-16T14:28:38;97019.00;;;15.72;48.65
54910;BME280;63189;51.240;9.964;2022-09-16T14:31:26;97025.94;;;15.73;49.68
54910;BME280;63189;51.240;9.964;2022-09-16T14:33:55;97023.63;;;15.68;49.47
54910;BME280;63189;51.240;9.964;2022-09-16T14:36:27;97028.38;;;15.63;49.40
54910;BME280;63189;51.240;9.964;2022-09-16T14:38:55;97020.66;;;15.60;49.17
54910;BME280;63189;51.240;9.964;2022-09-16T14:44:00;97014.94;;;15.53;51.33
54910;BME280;63189;51.240;9.964;2022-09-16T14:46:30;97023.19;;;15.62;51.44
54910;BME280;63189;51.240;9.964;2022-09-16T14:48:56;97019.16;;;15.56;51.50
54910;BME280;63189;51.240;9.964;2022-09-16T14:51:24;97022.34;;;15.61;51.52
54910;BME280;63189;51.240;9.964;2022-09-16T14:53:56;97019.16;;;15.56;52.03
54910;BME280;63189;51.240;9.964;2022-09-16T14:56:23;97017.66;;;15.52;51.87
54910;BME280;63189;51.240;9.964;2022-09-16T14:58:50;97024.78;;;15.50;52.47
54910;BME280;63189;51.240;9.964;2022-09-16T15:01:26;97020.59;;;15.47;51.65
54910;BME280;63189;51.240;9.964;2022-09-16T15:06:29;97025.28;;;15.42;51.79
54910;BME280;63189;51.240;9.964;2022-09-16T15:09:15;97025.38;;;15.41;51.27
54910;BME280;63189;51.240;9.964;2022-09-16T15:11:46;97027.03;;;15.29;50.89
54910;BME280;63189;51.240;9.964;2022-09-16T15:14:12;97018.63;;;15.24;51.89
54910;BME280;63189;51.240;9.964;2022-09-16T15:16:43;97027.34;;;15.24;51.90
54910;BME280;63189;51.240;9.964;2022-09-16T15:19:19;97019.84;;;15.18;50.89
54910;BME280;63189;51.240;9.964;2022-09-16T15:21:46;97019.09;;;15.16;51.69
54910;BME280;63189;51.240;9.964;2022-09-16T15:24:23;97021.09;;;15.13;51.48
54910;BME280;63189;51.240;9.964;2022-09-16T15:26:52;97023.81;;;15.11;52.06
54910;BME280;63189;51.240;9.964;2022-09-16T15:31:45;97015.25;;;15.08;52.04
54910;BME280;63189;51.240;9.964;2022-09-16T15:36:50;97018.00;;;15.06;52.25
54910;BME280;63189;51.240;9.964;2022-09-16T15:39:26;97024.19;;;15.05;51.32
54910;BME280;63189;51.240;9.964;2022-09-16T15:42:12;97027.00;;;15.02;51.45
54910;BME280;63189;51.240;9.964;2022-09-16T15:47:38;97013.16;;;14.86;50.59
54910;BME280;63189;51.240;9.964;2022-09-16T15:53:11;97024.03;;;14.80;50.97
54910;BME280;63189;51.240;9.964;2022-09-16T15:55:59;97015.59;;;14.75;50.73